createdAt,value
2022-12-27T00:00:02.434Z,5.83
2022-12-27T00:01:18.769Z,5.82
2022-12-27T00:02:29.931Z,5.80
2022-12-27T00:03:41.205Z,5.84
2022-12-27T00:04:46.366Z,5.86
2022-12-27T00:05:49.294Z,5.89
2022-12-27T00:06:52.075Z,5.87
2022-12-27T00:08:06.037Z,5.91
2022-12-27T00:09:13.086Z,5.93
2022-12-27T00:10:28.583Z,5.96
2022-12-27T00:11:32.674Z,5.87
2022-12-27T00:12:40.711Z,5.84
2022-12-27T00:13:44.395Z,5.82
2022-12-27T00:14:52.094Z,5.80
2022-12-27T00:16:02.175Z,5.78
2022-12-27T00:17:07.779Z,5.78
2022-12-27T00:18:21.153Z,5.75
2022-12-27T00:19:26.598Z,5.75
2022-12-27T00:20:32.251Z,5.77
2022-12-27T00:21:35.367Z,5.76
2022-12-27T00:23:00.040Z,5.78
2022-12-27T00:24:13.924Z,5.77
2022-12-27T00:25:16.850Z,5.78
2022-12-27T00:26:32.387Z,5.75
2022-12-27T00:27:38.408Z,5.74
2022-12-27T00:28:41.397Z,5.73
2022-12-27T00:29:46.490Z,5.76
2022-12-27T00:31:10.059Z,5.75
2022-12-27T00:32:21.426Z,5.82
2022-12-27T00:33:44.940Z,5.94
2022-12-27T00:35:18.035Z,5.90
2022-12-27T00:36:56.496Z,5.91
2022-12-27T00:38:07.800Z,5.88
2022-12-27T00:39:12.214Z,5.79
2022-12-27T00:40:24.012Z,5.76
2022-12-27T00:41:31.060Z,5.76
2022-12-27T00:42:39.634Z,5.75
2022-12-27T00:43:54.753Z,5.75
2022-12-27T00:45:07.908Z,5.80
2022-12-27T00:46:17.364Z,5.83
2022-12-27T00:49:05.655Z,5.79
2022-12-27T00:50:11.793Z,5.77
2022-12-27T00:51:20.779Z,5.78
2022-12-27T00:52:26.138Z,5.86
2022-12-27T00:53:48.097Z,5.78
2022-12-27T00:54:54.439Z,5.75
2022-12-27T00:56:11.610Z,5.74
2022-12-27T00:57:22.939Z,5.71
2022-12-27T00:58:40.548Z,5.73
2022-12-27T00:59:44.019Z,5.73
2022-12-27T01:00:50.191Z,5.71
2022-12-27T01:02:01.872Z,5.72
2022-12-27T01:03:08.094Z,5.76
2022-12-27T01:04:20.344Z,5.76
2022-12-27T01:05:34.995Z,5.88
2022-12-27T01:06:46.889Z,5.91
2022-12-27T01:07:52.981Z,5.79
2022-12-27T01:08:57.403Z,5.79
2022-12-27T01:10:12.131Z,5.76
2022-12-27T01:11:18.676Z,5.70
2022-12-27T01:12:21.557Z,5.69
2022-12-27T01:13:33.346Z,5.75
2022-12-27T01:14:36.290Z,5.81
2022-12-27T01:15:45.169Z,5.90
2022-12-27T01:16:48.226Z,5.82
2022-12-27T01:18:01.288Z,5.81
2022-12-27T01:19:04.202Z,5.70
2022-12-27T01:20:12.534Z,5.76
2022-12-27T01:21:33.574Z,5.71
2022-12-27T01:22:46.664Z,5.79
2022-12-27T01:23:59.555Z,5.67
2022-12-27T01:25:02.691Z,5.65
2022-12-27T01:26:15.940Z,5.69
2022-12-27T01:27:42.021Z,5.66
2022-12-27T01:28:54.059Z,5.63
2022-12-27T01:30:02.737Z,5.63
2022-12-27T01:31:14.496Z,5.63
2022-12-27T01:32:20.427Z,5.68
2022-12-27T01:33:23.693Z,5.65
2022-12-27T01:34:26.594Z,5.73
2022-12-27T01:35:32.941Z,5.77
2022-12-27T01:36:43.441Z,5.75
2022-12-27T01:37:47.504Z,5.75
2022-12-27T01:38:52.557Z,5.71
2022-12-27T01:40:05.861Z,5.61
2022-12-27T01:41:42.716Z,5.65
2022-12-27T01:42:55.796Z,5.63
2022-12-27T01:44:00.343Z,5.61
2022-12-27T01:45:22.539Z,5.62
2022-12-27T01:46:37.073Z,5.58
2022-12-27T01:48:06.603Z,5.65
2022-12-27T01:49:20.804Z,5.68
2022-12-27T01:50:30.143Z,5.68
2022-12-27T01:51:32.889Z,5.63
2022-12-27T01:52:46.372Z,5.56
2022-12-27T01:53:53.040Z,5.61
2022-12-27T01:55:07.608Z,5.65
2022-12-27T01:56:24.079Z,5.59
2022-12-27T01:57:26.805Z,5.60
2022-12-27T01:58:29.538Z,5.61
2022-12-27T01:59:36.059Z,5.57
2022-12-27T02:00:41.552Z,5.53
2022-12-27T02:01:58.446Z,5.50
2022-12-27T02:03:05.332Z,5.53
2022-12-27T02:04:29.389Z,5.56
2022-12-27T02:05:45.102Z,5.59
2022-12-27T02:06:54.226Z,5.57
2022-12-27T02:08:59.353Z,5.57
2022-12-27T02:14:00.943Z,5.53
2022-12-27T02:15:24.406Z,5.57
2022-12-27T02:17:23.728Z,5.55
2022-12-27T02:20:23.092Z,5.56
2022-12-27T02:24:20.003Z,5.55
2022-12-27T02:25:41.037Z,5.56
2022-12-27T02:26:49.092Z,5.55
2022-12-27T02:29:37.260Z,5.56
2022-12-27T02:30:41.847Z,5.61
2022-12-27T02:31:56.307Z,5.61
2022-12-27T02:33:16.014Z,5.66
2022-12-27T02:34:26.439Z,5.75
2022-12-27T02:35:40.133Z,5.66
2022-12-27T02:36:48.733Z,5.61
2022-12-27T02:37:58.314Z,5.58
2022-12-27T02:39:01.903Z,5.58
2022-12-27T02:40:28.525Z,5.58
2022-12-27T02:41:52.928Z,5.62
2022-12-27T02:43:15.580Z,5.54
2022-12-27T02:44:48.705Z,5.56
2022-12-27T02:46:31.608Z,5.54
2022-12-27T02:51:35.165Z,5.58
2022-12-27T02:53:45.290Z,5.59
2022-12-27T02:55:21.211Z,5.65
2022-12-27T02:56:50.436Z,5.61
2022-12-27T02:58:24.210Z,5.62
2022-12-27T03:00:13.708Z,5.59
2022-12-27T03:01:55.220Z,5.62
2022-12-27T03:03:59.273Z,5.59
2022-12-27T03:06:42.034Z,5.65
2022-12-27T03:08:26.147Z,5.71
2022-12-27T03:10:02.066Z,5.70
2022-12-27T03:11:25.829Z,5.56
2022-12-27T03:13:02.971Z,5.57
2022-12-27T03:14:45.716Z,5.58
2022-12-27T03:16:04.579Z,5.56
2022-12-27T03:18:40.824Z,5.66
2022-12-27T03:20:12.878Z,5.56
2022-12-27T03:22:05.375Z,5.56
2022-12-27T03:23:41.897Z,5.62
2022-12-27T03:25:03.115Z,5.62
2022-12-27T03:26:07.562Z,5.55
2022-12-27T03:27:39.427Z,5.54
2022-12-27T03:29:04.606Z,5.52
2022-12-27T03:30:28.887Z,5.52
2022-12-27T03:33:49.298Z,5.52
2022-12-27T03:35:55.607Z,5.48
2022-12-27T03:37:56.423Z,5.46
2022-12-27T03:39:44.939Z,5.49
2022-12-27T03:41:12.704Z,5.52
2022-12-27T03:42:42.985Z,5.44
2022-12-27T03:45:39.800Z,5.50
2022-12-27T03:47:06.296Z,5.52
2022-12-27T03:48:12.711Z,5.45
2022-12-27T03:49:26.226Z,5.49
2022-12-27T03:50:46.845Z,5.46
2022-12-27T03:53:07.490Z,5.53
2022-12-27T03:58:24.034Z,5.52
2022-12-27T03:59:27.385Z,5.48
2022-12-27T04:04:06.263Z,5.44
2022-12-27T04:07:00.680Z,5.52
2022-12-27T04:10:35.279Z,5.45
2022-12-27T04:11:59.283Z,5.47
2022-12-27T04:18:49.964Z,5.43
2022-12-27T04:21:52.321Z,5.38
2022-12-27T04:25:24.359Z,5.40
2022-12-27T04:26:50.654Z,5.53
2022-12-27T04:28:12.158Z,5.47
2022-12-27T04:30:06.196Z,5.42
2022-12-27T04:33:15.371Z,5.32
2022-12-27T04:36:00.172Z,5.34
2022-12-27T04:37:30.188Z,5.44
2022-12-27T04:40:25.348Z,5.37
2022-12-27T04:41:50.648Z,5.50
2022-12-27T04:47:42.764Z,5.54
2022-12-27T04:49:36.897Z,5.56
2022-12-27T04:51:01.822Z,5.46
2022-12-27T04:54:10.209Z,5.46
2022-12-27T04:55:25.386Z,5.59
2022-12-27T04:56:29.540Z,5.51
2022-12-27T04:59:56.113Z,5.51
2022-12-27T05:07:18.034Z,5.60
2022-12-27T05:08:42.581Z,5.56
2022-12-27T05:10:04.321Z,5.51
2022-12-27T05:13:37.278Z,5.49
2022-12-27T05:14:59.160Z,5.53
2022-12-27T05:17:43.753Z,5.44
2022-12-27T05:20:26.439Z,5.41
2022-12-27T05:23:54.127Z,5.44
2022-12-27T05:25:35.866Z,5.48
2022-12-27T05:26:45.628Z,5.47
2022-12-27T05:27:49.513Z,5.49
2022-12-27T05:29:02.572Z,5.38
2022-12-27T05:30:17.575Z,5.42
2022-12-27T05:36:57.022Z,5.34
2022-12-27T05:41:31.009Z,5.35
2022-12-27T05:42:33.993Z,5.34
2022-12-27T05:43:39.475Z,5.31
2022-12-27T05:44:44.757Z,5.33
2022-12-27T05:45:52.466Z,5.40
2022-12-27T05:47:00.376Z,5.38
2022-12-27T05:48:08.957Z,5.42
2022-12-27T05:49:17.036Z,5.39
2022-12-27T05:50:20.189Z,5.39
2022-12-27T05:51:27.169Z,5.34
2022-12-27T05:52:33.974Z,5.44
2022-12-27T05:53:57.780Z,5.32
2022-12-27T05:55:04.656Z,5.37
2022-12-27T05:58:16.865Z,5.40
2022-12-27T05:59:55.489Z,5.38
2022-12-27T06:01:02.146Z,5.29
2022-12-27T06:02:08.669Z,5.29
2022-12-27T06:03:11.681Z,5.24
2022-12-27T06:04:16.395Z,5.23
2022-12-27T06:05:18.854Z,5.20
2022-12-27T06:06:25.989Z,5.17
2022-12-27T06:07:33.233Z,5.17
2022-12-27T06:08:41.972Z,5.30
2022-12-27T06:09:47.930Z,5.25
2022-12-27T06:10:50.462Z,5.18
2022-12-27T06:11:53.025Z,5.18
2022-12-27T06:12:57.638Z,5.13
2022-12-27T06:14:02.973Z,5.10
2022-12-27T06:16:47.777Z,5.15
2022-12-27T06:21:24.984Z,5.14
2022-12-27T06:24:13.882Z,5.14
2022-12-27T06:25:54.481Z,5.18
2022-12-27T06:26:57.326Z,5.17
2022-12-27T06:28:10.453Z,5.24
2022-12-27T06:32:11.123Z,5.21
2022-12-27T06:33:21.149Z,5.13
2022-12-27T06:36:37.278Z,5.03
2022-12-27T06:38:04.769Z,5.00
2022-12-27T06:39:33.924Z,4.96
2022-12-27T06:40:54.081Z,5.00
2022-12-27T06:41:56.690Z,5.02
2022-12-27T06:43:00.857Z,5.15
2022-12-27T06:44:03.492Z,5.20
2022-12-27T06:45:40.764Z,5.21
2022-12-27T06:47:03.552Z,5.11
2022-12-27T06:48:38.267Z,5.19
2022-12-27T06:57:14.934Z,4.98
2022-12-27T06:58:46.782Z,4.96
2022-12-27T07:04:41.159Z,4.83
2022-12-27T07:13:25.847Z,4.89
2022-12-27T07:16:45.680Z,4.92
2022-12-27T07:17:57.045Z,4.94
2022-12-27T07:19:01.594Z,4.86
2022-12-27T07:20:08.106Z,4.91
2022-12-27T07:21:33.597Z,4.98
2022-12-27T07:23:19.366Z,5.11
2022-12-27T07:24:32.991Z,5.18
2022-12-27T07:25:36.242Z,5.07
2022-12-27T07:26:50.037Z,5.18
2022-12-27T07:29:05.778Z,5.23
2022-12-27T07:30:37.371Z,5.34
2022-12-27T07:32:00.462Z,5.30
2022-12-27T07:33:17.398Z,5.25
2022-12-27T07:34:48.241Z,5.37
2022-12-27T07:36:23.946Z,5.42
2022-12-27T07:38:08.741Z,5.30
2022-12-27T07:39:35.675Z,5.25
2022-12-27T07:40:46.958Z,5.25
2022-12-27T07:41:55.508Z,5.26
2022-12-27T07:44:39.977Z,5.37
2022-12-27T07:45:53.013Z,5.40
2022-12-27T07:47:00.745Z,5.37
2022-12-27T07:48:26.175Z,5.42
2022-12-27T07:49:53.465Z,5.50
2022-12-27T07:51:00.567Z,5.50
2022-12-27T07:52:12.457Z,5.61
2022-12-27T07:53:20.887Z,5.63
2022-12-27T07:54:31.665Z,5.64
2022-12-27T07:55:44.825Z,5.81
2022-12-27T07:56:51.592Z,6.02
2022-12-27T07:57:59.907Z,6.44
2022-12-27T07:59:03.798Z,7.04
2022-12-27T08:00:09.485Z,7.22
2022-12-27T08:01:27.352Z,7.59
2022-12-27T08:02:46.223Z,8.32
2022-12-27T08:03:55.388Z,8.25
2022-12-27T08:06:39.089Z,7.61
2022-12-27T08:08:09.030Z,7.49
2022-12-27T08:12:08.647Z,9.92
2022-12-27T08:13:11.590Z,10.88
2022-12-27T08:14:16.235Z,11.59
2022-12-27T08:15:18.901Z,11.69
2022-12-27T08:16:43.283Z,11.57
2022-12-27T08:17:49.588Z,11.90
2022-12-27T08:18:53.377Z,12.18
2022-12-27T08:20:00.923Z,12.62
2022-12-27T08:21:20.947Z,12.04
2022-12-27T08:22:44.412Z,11.47
2022-12-27T08:24:03.228Z,11.31
2022-12-27T08:25:08.963Z,11.79
2022-12-27T08:27:37.349Z,12.07
2022-12-27T08:28:40.545Z,11.66
2022-12-27T08:29:46.208Z,10.95
2022-12-27T08:30:49.371Z,10.61
2022-12-27T08:31:54.289Z,10.36
2022-12-27T08:32:59.609Z,10.28
2022-12-27T08:34:05.817Z,10.51
2022-12-27T08:35:41.830Z,10.64
2022-12-27T08:36:55.868Z,11.31
2022-12-27T08:38:13.517Z,11.72
2022-12-27T08:39:16.500Z,11.58
2022-12-27T08:40:28.048Z,11.00
2022-12-27T08:41:31.680Z,10.67
2022-12-27T08:42:42.723Z,10.66
2022-12-27T08:43:48.079Z,10.71
2022-12-27T08:44:53.488Z,10.32
2022-12-27T08:46:05.411Z,10.61
2022-12-27T08:47:12.205Z,10.87
2022-12-27T08:48:14.859Z,10.69
2022-12-27T08:49:18.154Z,10.40
2022-12-27T08:50:31.341Z,10.12
2022-12-27T08:51:41.070Z,9.87
2022-12-27T08:52:49.352Z,9.70
2022-12-27T08:54:01.689Z,9.98
2022-12-27T08:55:06.726Z,10.13
2022-12-27T08:56:17.069Z,10.76
2022-12-27T08:57:19.655Z,10.66
2022-12-27T08:58:22.437Z,10.86
2022-12-27T08:59:25.047Z,11.08
2022-12-27T09:00:30.510Z,10.90
2022-12-27T09:02:50.853Z,10.75
2022-12-27T09:03:54.141Z,10.57
2022-12-27T09:04:59.948Z,10.73
2022-12-27T09:06:19.279Z,11.10
2022-12-27T09:07:27.387Z,11.46
2022-12-27T09:08:32.734Z,11.24
2022-12-27T09:09:38.021Z,11.63
2022-12-27T09:10:43.633Z,11.47
2022-12-27T09:11:47.406Z,12.14
2022-12-27T09:12:55.299Z,11.65
2022-12-27T09:14:03.203Z,11.64
2022-12-27T09:15:06.294Z,11.55
2022-12-27T09:17:30.340Z,11.61
2022-12-27T09:18:36.145Z,11.60
2022-12-27T09:19:48.161Z,11.73
2022-12-27T09:20:54.888Z,11.78
2022-12-27T09:21:57.516Z,11.66
2022-12-27T09:23:03.018Z,12.22
2022-12-27T09:24:09.164Z,12.31
2022-12-27T09:25:16.132Z,11.93
2022-12-27T09:26:23.459Z,12.16
2022-12-27T09:27:27.341Z,12.20
2022-12-27T09:28:32.460Z,12.52
2022-12-27T09:29:48.227Z,13.10
2022-12-27T09:30:52.860Z,13.18
2022-12-27T09:31:58.198Z,13.88
2022-12-27T09:33:03.418Z,13.41
2022-12-27T09:34:12.728Z,13.29
2022-12-27T09:35:15.385Z,13.87
2022-12-27T09:36:21.036Z,13.72
2022-12-27T09:37:24.416Z,13.60
2022-12-27T09:38:26.874Z,13.79
2022-12-27T09:39:30.712Z,14.01
2022-12-27T09:40:33.427Z,13.58
2022-12-27T09:43:23.959Z,13.66
2022-12-27T09:44:46.816Z,13.63
2022-12-27T09:45:52.954Z,13.79
2022-12-27T09:47:05.493Z,13.89
2022-12-27T09:48:17.940Z,13.42
2022-12-27T09:49:31.290Z,13.80
2022-12-27T09:50:52.741Z,14.00
2022-12-27T09:52:04.160Z,14.20
2022-12-27T09:53:28.765Z,14.11
2022-12-27T09:54:45.876Z,14.23
2022-12-27T09:56:00.287Z,14.31
2022-12-27T09:57:19.823Z,14.37
2022-12-27T09:58:36.629Z,14.10
2022-12-27T09:59:45.688Z,14.18
2022-12-27T10:00:50.832Z,13.88
2022-12-27T10:01:53.432Z,14.07
2022-12-27T10:02:59.203Z,13.61
2022-12-27T10:04:03.869Z,13.60
2022-12-27T10:05:21.126Z,13.62
2022-12-27T10:06:51.392Z,14.31
2022-12-27T10:08:12.032Z,14.20
2022-12-27T10:09:36.177Z,13.90
2022-12-27T10:11:04.039Z,13.85
2022-12-27T10:12:48.263Z,13.25
2022-12-27T10:13:57.644Z,13.60
2022-12-27T10:15:16.163Z,14.15
2022-12-27T10:16:47.549Z,13.86
2022-12-27T10:18:12.083Z,14.02
2022-12-27T10:19:34.496Z,13.34
2022-12-27T10:20:55.812Z,13.90
2022-12-27T10:22:16.635Z,13.92
2022-12-27T10:23:25.973Z,13.97
2022-12-27T10:24:42.963Z,14.15
2022-12-27T10:25:47.674Z,14.02
2022-12-27T10:26:53.606Z,14.17
2022-12-27T10:28:01.760Z,13.51
2022-12-27T10:29:17.504Z,13.68
2022-12-27T10:30:23.176Z,13.44
2022-12-27T10:31:27.151Z,13.69
2022-12-27T10:32:29.749Z,13.12
2022-12-27T10:33:35.644Z,13.62
2022-12-27T10:34:39.542Z,13.90
2022-12-27T10:35:43.144Z,13.94
2022-12-27T10:36:46.415Z,14.40
2022-12-27T10:37:54.266Z,13.42
2022-12-27T10:38:57.137Z,13.57
2022-12-27T10:40:09.540Z,13.35
2022-12-27T10:41:30.716Z,13.67
2022-12-27T10:42:42.013Z,14.11
2022-12-27T10:43:49.961Z,14.17
2022-12-27T10:44:52.755Z,14.23
2022-12-27T10:45:55.437Z,14.61
2022-12-27T10:46:58.573Z,14.14
2022-12-27T10:48:16.096Z,14.21
2022-12-27T10:49:30.389Z,14.79
2022-12-27T10:50:36.160Z,14.58
2022-12-27T10:51:42.146Z,14.60
2022-12-27T10:57:52.406Z,12.73
2022-12-27T10:59:34.613Z,12.41
2022-12-27T11:02:28.407Z,11.73
2022-12-27T11:03:40.128Z,11.64
2022-12-27T11:05:05.970Z,11.31
2022-12-27T11:06:29.055Z,11.33
2022-12-27T11:07:43.676Z,11.42
2022-12-27T11:08:46.641Z,11.44
2022-12-27T11:10:15.857Z,11.83
2022-12-27T11:11:24.728Z,12.54
2022-12-27T11:12:33.243Z,12.80
2022-12-27T11:13:40.347Z,13.17
2022-12-27T11:15:13.934Z,12.47
2022-12-27T11:16:43.627Z,12.25
2022-12-27T11:18:14.214Z,11.65
2022-12-27T11:19:27.632Z,11.51
2022-12-27T11:20:39.112Z,11.50
2022-12-27T11:21:44.828Z,11.62
2022-12-27T11:22:54.351Z,11.32
2022-12-27T11:24:10.733Z,11.51
2022-12-27T11:25:18.056Z,11.64
2022-12-27T11:26:29.497Z,12.16
2022-12-27T11:27:32.463Z,12.80
2022-12-27T11:28:44.756Z,13.23
2022-12-27T11:29:57.908Z,13.49
2022-12-27T11:31:13.348Z,14.18
2022-12-27T11:32:19.556Z,14.42
2022-12-27T11:33:46.949Z,14.25
2022-12-27T11:34:53.847Z,14.44
2022-12-27T11:36:35.023Z,14.30
2022-12-27T11:37:45.831Z,14.86
2022-12-27T11:38:51.678Z,15.11
2022-12-27T11:40:13.567Z,15.02
2022-12-27T11:41:31.049Z,14.53
2022-12-27T11:42:45.896Z,15.50
2022-12-27T11:43:58.874Z,15.29
2022-12-27T11:45:23.609Z,15.10
2022-12-27T11:47:00.215Z,14.55
2022-12-27T11:48:12.539Z,15.38
2022-12-27T11:49:29.704Z,14.46
2022-12-27T11:50:47.334Z,14.47
2022-12-27T11:52:07.423Z,14.49
2022-12-27T11:53:39.083Z,13.95
2022-12-27T11:55:00.369Z,13.20
2022-12-27T11:56:18.639Z,12.43
2022-12-27T11:57:53.146Z,12.34
2022-12-27T11:59:49.848Z,12.04
2022-12-27T12:01:09.339Z,11.42
2022-12-27T12:02:40.185Z,11.35
2022-12-27T12:04:05.735Z,10.81
2022-12-27T12:05:20.321Z,10.74
2022-12-27T12:07:17.156Z,10.66
2022-12-27T12:08:33.750Z,10.42
2022-12-27T12:10:01.270Z,10.06
2022-12-27T12:11:21.704Z,9.90
2022-12-27T12:13:01.653Z,9.99
2022-12-27T12:14:39.169Z,9.74
2022-12-27T12:16:01.130Z,9.74
2022-12-27T12:17:45.410Z,9.73
2022-12-27T12:19:20.059Z,9.68
2022-12-27T12:20:48.765Z,9.67
2022-12-27T12:21:59.363Z,9.48
2022-12-27T12:23:50.518Z,9.49
2022-12-27T12:25:01.697Z,9.59
2022-12-27T12:26:16.790Z,9.69
2022-12-27T12:27:28.460Z,9.63
2022-12-27T12:29:05.367Z,9.68
2022-12-27T12:30:27.824Z,9.72
2022-12-27T12:31:44.214Z,9.89
2022-12-27T12:32:52.242Z,9.87
2022-12-27T12:34:27.649Z,9.96
2022-12-27T12:35:51.534Z,9.87
2022-12-27T12:36:59.819Z,9.95
2022-12-27T12:38:05.399Z,9.92
2022-12-27T12:39:24.791Z,9.76
2022-12-27T12:40:46.690Z,9.94
2022-12-27T12:41:49.278Z,9.84
2022-12-27T12:42:57.570Z,9.66
2022-12-27T12:44:24.324Z,9.71
2022-12-27T12:45:28.859Z,9.80
2022-12-27T12:47:01.130Z,9.76
2022-12-27T12:48:17.543Z,9.75
2022-12-27T12:49:49.350Z,9.67
2022-12-27T12:51:16.496Z,9.65
2022-12-27T12:52:37.734Z,9.66
2022-12-27T12:53:43.528Z,9.62
2022-12-27T12:55:18.228Z,9.60
2022-12-27T12:56:59.544Z,9.56
2022-12-27T12:58:20.364Z,9.54
2022-12-27T12:59:41.507Z,9.52
2022-12-27T13:01:05.487Z,9.54
2022-12-27T13:02:49.251Z,9.41
2022-12-27T13:04:22.809Z,9.38
2022-12-27T13:06:03.652Z,9.09
2022-12-27T13:07:24.049Z,9.13
2022-12-27T13:08:42.891Z,9.13
2022-12-27T13:09:51.369Z,8.92
2022-12-27T13:11:23.991Z,8.91
2022-12-27T13:12:39.139Z,8.86
2022-12-27T13:13:58.643Z,8.69
2022-12-27T13:15:21.237Z,8.61
2022-12-27T13:16:54.066Z,8.59
2022-12-27T13:18:16.016Z,8.55
2022-12-27T13:19:49.546Z,8.54
2022-12-27T13:21:00.695Z,8.40
2022-12-27T13:22:09.371Z,8.46
2022-12-27T13:23:25.506Z,8.34
2022-12-27T13:25:03.074Z,8.34
2022-12-27T13:26:28.308Z,9.04
2022-12-27T13:27:35.987Z,9.48
2022-12-27T13:28:58.644Z,9.93
2022-12-27T13:30:22.588Z,10.10
2022-12-27T13:31:51.566Z,10.21
2022-12-27T13:33:13.262Z,10.36
2022-12-27T13:34:32.546Z,10.45
2022-12-27T13:36:00.807Z,10.64
2022-12-27T13:37:30.371Z,10.65
2022-12-27T13:38:44.982Z,10.46
2022-12-27T13:39:47.818Z,10.70
2022-12-27T13:41:15.370Z,10.74
2022-12-27T13:42:30.732Z,10.47
2022-12-27T13:44:13.225Z,10.28
2022-12-27T13:45:34.140Z,9.82
2022-12-27T13:47:12.979Z,9.05
2022-12-27T13:48:40.612Z,8.97
2022-12-27T13:50:35.527Z,8.54
2022-12-27T13:51:44.416Z,8.66
2022-12-27T13:53:00.200Z,8.40
2022-12-27T13:54:17.945Z,8.08
2022-12-27T13:55:32.565Z,8.05
2022-12-27T13:56:59.385Z,7.98
2022-12-27T13:58:24.087Z,7.82
2022-12-27T14:00:01.373Z,7.91
2022-12-27T14:01:16.818Z,7.78
2022-12-27T14:02:38.851Z,7.73
2022-12-27T14:03:47.770Z,7.60
2022-12-27T14:05:02.567Z,7.49
2022-12-27T14:06:16.908Z,7.41
2022-12-27T14:07:41.278Z,7.43
2022-12-27T14:09:18.101Z,7.53
2022-12-27T14:10:37.807Z,7.46
2022-12-27T14:11:40.292Z,7.36
2022-12-27T14:12:57.995Z,7.29
2022-12-27T14:14:02.673Z,7.34
2022-12-27T14:15:08.309Z,7.30
2022-12-27T14:16:30.542Z,7.21
2022-12-27T14:17:57.063Z,7.18
2022-12-27T14:18:59.572Z,7.06
2022-12-27T14:20:46.164Z,6.95
2022-12-27T14:21:58.286Z,7.01
2022-12-27T14:23:03.570Z,6.94
2022-12-27T14:24:18.187Z,6.99
2022-12-27T14:25:35.715Z,7.03
2022-12-27T14:26:53.727Z,7.01
2022-12-27T14:28:05.323Z,6.95
2022-12-27T14:29:39.957Z,6.90
2022-12-27T14:31:03.533Z,6.79
2022-12-27T14:32:30.881Z,6.66
2022-12-27T14:33:59.355Z,6.51
2022-12-27T14:35:52.044Z,6.45
2022-12-27T14:37:21.895Z,6.52
2022-12-27T14:38:42.578Z,6.48
2022-12-27T14:40:16.884Z,6.54
2022-12-27T14:41:40.751Z,6.48
2022-12-27T14:43:22.913Z,6.25
2022-12-27T14:44:49.450Z,6.25
2022-12-27T14:46:18.234Z,6.19
2022-12-27T14:47:39.117Z,6.16
2022-12-27T14:48:57.776Z,6.15
2022-12-27T14:50:24.988Z,6.09
2022-12-27T14:52:01.797Z,6.11
2022-12-27T14:53:24.493Z,6.13
2022-12-27T14:54:48.426Z,6.12
2022-12-27T14:55:56.360Z,6.08
2022-12-27T14:57:35.885Z,6.17
2022-12-27T14:59:02.641Z,6.17
2022-12-27T15:00:05.514Z,6.19
2022-12-27T15:01:26.468Z,6.24
2022-12-27T15:03:01.111Z,6.21
2022-12-27T15:04:28.584Z,6.11
2022-12-27T15:05:39.975Z,5.96
2022-12-27T15:06:53.596Z,5.94
2022-12-27T15:08:20.385Z,5.95
2022-12-27T15:09:32.616Z,5.90
2022-12-27T15:10:47.325Z,5.78
2022-12-27T15:12:08.280Z,5.70
2022-12-27T15:13:18.458Z,5.54
2022-12-27T15:14:36.062Z,5.50
2022-12-27T15:16:23.949Z,5.66
2022-12-27T15:17:33.630Z,5.30
2022-12-27T15:19:00.209Z,5.34
2022-12-27T15:20:20.326Z,5.29
2022-12-27T15:21:28.291Z,5.22
2022-12-27T15:22:39.886Z,5.22
2022-12-27T15:23:49.483Z,5.30
2022-12-27T15:25:36.258Z,5.30
2022-12-27T15:26:56.054Z,5.41
2022-12-27T15:28:10.760Z,5.47
2022-12-27T15:29:51.783Z,5.55
2022-12-27T15:31:03.891Z,5.45
2022-12-27T15:32:51.257Z,5.41
2022-12-27T15:34:13.177Z,5.45
2022-12-27T15:35:44.814Z,5.41
2022-12-27T15:36:51.080Z,5.40
2022-12-27T15:38:04.174Z,5.36
2022-12-27T15:39:27.080Z,5.34
2022-12-27T15:40:29.513Z,5.26
2022-12-27T15:41:58.855Z,5.20
2022-12-27T15:43:15.186Z,5.24
2022-12-27T15:44:45.387Z,5.17
2022-12-27T15:46:32.503Z,5.08
2022-12-27T15:47:58.999Z,5.05
2022-12-27T15:49:34.113Z,5.00
2022-12-27T15:51:20.409Z,5.20
2022-12-27T15:52:43.830Z,5.33
2022-12-27T15:54:11.267Z,5.22
2022-12-27T15:55:24.713Z,5.08
2022-12-27T15:56:51.514Z,5.14
2022-12-27T15:58:33.633Z,5.09
2022-12-27T15:59:57.743Z,4.91
2022-12-27T16:01:28.060Z,4.93
2022-12-27T16:02:46.833Z,4.72
2022-12-27T16:03:55.746Z,4.73
2022-12-27T16:05:50.164Z,4.80
2022-12-27T16:06:52.499Z,4.68
2022-12-27T16:08:09.139Z,4.63
2022-12-27T16:09:35.770Z,4.58
2022-12-27T16:10:40.893Z,4.33
2022-12-27T16:12:11.255Z,4.36
2022-12-27T16:13:23.242Z,4.34
2022-12-27T16:14:40.335Z,4.20
2022-12-27T16:15:48.070Z,4.13
2022-12-27T16:16:56.664Z,4.08
2022-12-27T16:18:02.850Z,4.15
2022-12-27T16:19:30.811Z,4.17
2022-12-27T16:20:44.083Z,4.12
2022-12-27T16:23:11.943Z,3.96
2022-12-27T16:24:29.501Z,3.85
2022-12-27T16:25:40.076Z,3.67
2022-12-27T16:27:07.685Z,3.78
2022-12-27T16:28:27.542Z,3.68
2022-12-27T16:29:34.331Z,3.62
2022-12-27T16:30:58.860Z,3.55
2022-12-27T16:32:30.915Z,3.52
2022-12-27T16:35:13.841Z,3.17
2022-12-27T16:36:47.332Z,3.18
2022-12-27T16:37:56.095Z,3.20
2022-12-27T16:39:29.150Z,3.26
2022-12-27T16:40:40.031Z,3.31
2022-12-27T16:41:55.143Z,3.33
2022-12-27T16:43:21.292Z,3.18
2022-12-27T16:44:25.114Z,3.20
2022-12-27T16:46:07.491Z,3.29
2022-12-27T16:47:32.914Z,3.24
2022-12-27T16:49:32.312Z,3.06
2022-12-27T16:50:46.748Z,3.24
2022-12-27T16:51:58.603Z,3.22
2022-12-27T16:53:49.788Z,3.26
2022-12-27T16:55:26.864Z,3.18
2022-12-27T16:56:32.480Z,2.95
2022-12-27T16:58:23.370Z,3.05
2022-12-27T17:00:01.578Z,3.04
2022-12-27T17:01:48.259Z,2.91
2022-12-27T17:02:51.091Z,2.88
2022-12-27T17:03:59.316Z,2.87
2022-12-27T17:05:01.987Z,2.88
2022-12-27T17:06:35.343Z,2.80
2022-12-27T17:07:56.270Z,2.70
2022-12-27T17:09:10.816Z,2.65
2022-12-27T17:10:44.840Z,2.65
2022-12-27T17:11:50.260Z,2.44
2022-12-27T17:12:56.500Z,2.34
2022-12-27T17:14:14.547Z,2.41
2022-12-27T17:15:17.152Z,2.39
2022-12-27T17:16:22.987Z,2.44
2022-12-27T17:17:27.004Z,2.15
2022-12-27T17:18:52.540Z,2.12
2022-12-27T17:20:05.856Z,2.18
2022-12-27T17:21:40.953Z,2.10
2022-12-27T17:22:43.848Z,2.26
2022-12-27T17:23:51.218Z,2.07
2022-12-27T17:25:01.050Z,1.98
2022-12-27T17:26:21.442Z,1.98
2022-12-27T17:27:27.147Z,2.03
2022-12-27T17:28:41.535Z,2.05
2022-12-27T17:29:59.323Z,2.10
2022-12-27T17:31:18.909Z,2.01
2022-12-27T17:32:37.964Z,2.13
2022-12-27T17:33:54.704Z,2.18
2022-12-27T17:35:28.573Z,2.18
2022-12-27T17:36:54.586Z,2.11
2022-12-27T17:38:21.070Z,2.04
2022-12-27T17:39:44.194Z,1.87
2022-12-27T17:40:49.336Z,2.00
2022-12-27T17:42:17.881Z,2.02
2022-12-27T17:43:49.669Z,2.02
2022-12-27T17:45:07.788Z,1.92
2022-12-27T17:46:37.019Z,1.83
2022-12-27T17:47:57.114Z,1.92
2022-12-27T17:48:59.596Z,1.96
2022-12-27T17:50:05.461Z,1.95
2022-12-27T17:51:15.307Z,1.91
2022-12-27T17:52:38.553Z,1.69
2022-12-27T17:54:07.991Z,1.57
2022-12-27T17:57:33.288Z,1.69
2022-12-27T17:58:35.868Z,1.77
2022-12-27T17:59:43.230Z,1.86
2022-12-27T18:01:06.159Z,1.74
2022-12-27T18:02:13.765Z,1.81
2022-12-27T18:03:19.868Z,1.78
2022-12-27T18:04:30.925Z,1.74
2022-12-27T18:05:40.006Z,1.73
2022-12-27T18:06:43.922Z,1.54
2022-12-27T18:07:46.795Z,1.58
2022-12-27T18:08:51.817Z,1.52
2022-12-27T18:10:23.961Z,1.46
2022-12-27T18:11:35.148Z,1.39
2022-12-27T18:12:43.440Z,1.31
2022-12-27T18:14:02.389Z,1.51
2022-12-27T18:15:16.996Z,1.44
2022-12-27T18:16:25.476Z,1.49
2022-12-27T18:18:01.315Z,1.49
2022-12-27T18:19:11.687Z,1.42
2022-12-27T18:20:31.539Z,1.58
2022-12-27T18:21:55.905Z,1.52
2022-12-27T18:23:03.230Z,1.57
2022-12-27T18:24:24.872Z,1.51
2022-12-27T18:25:34.244Z,1.19
2022-12-27T18:26:40.000Z,1.33
2022-12-27T18:27:43.629Z,1.27
2022-12-27T18:28:48.307Z,1.27
2022-12-27T18:29:52.781Z,1.31
2022-12-27T18:31:21.060Z,1.31
2022-12-27T18:32:25.889Z,1.36
2022-12-27T18:33:37.040Z,1.31
2022-12-27T18:34:49.744Z,1.24
2022-12-27T18:35:52.691Z,1.28
2022-12-27T18:37:09.824Z,1.29
2022-12-27T18:38:24.513Z,1.20
2022-12-27T18:39:33.878Z,1.22
2022-12-27T18:40:38.833Z,1.40
2022-12-27T18:41:51.694Z,1.70
2022-12-27T18:43:18.650Z,1.92
2022-12-27T18:46:31.901Z,2.24
2022-12-27T18:47:46.949Z,2.38
2022-12-27T18:49:06.581Z,2.51
2022-12-27T18:50:33.390Z,2.50
2022-12-27T18:53:43.684Z,2.50
2022-12-27T18:54:59.170Z,2.62
2022-12-27T18:56:16.630Z,2.61
2022-12-27T18:58:00.169Z,2.66
2022-12-27T18:59:06.031Z,2.63
2022-12-27T19:00:28.960Z,2.54
2022-12-27T19:03:28.745Z,2.23
2022-12-27T19:04:46.270Z,2.32
2022-12-27T19:06:19.585Z,2.39
2022-12-27T19:08:02.921Z,2.43
2022-12-27T19:09:08.224Z,2.42
2022-12-27T19:10:20.968Z,2.33
2022-12-27T19:11:31.679Z,2.27
2022-12-27T19:12:39.913Z,2.44
2022-12-27T19:13:56.819Z,2.38
2022-12-27T19:15:40.916Z,2.26
2022-12-27T19:17:06.984Z,2.22
2022-12-27T19:18:40.073Z,2.18
2022-12-27T19:20:11.603Z,2.27
2022-12-27T19:21:18.322Z,2.13
2022-12-27T19:23:05.997Z,2.08
2022-12-27T19:24:30.878Z,2.42